Time;durP1;ratioP1;P1;durP2;ratioP2;P2;SDS_P1;SDS_P2;PMS_P1;PMS_P2;Temp;Humidity;BMP_temperature;BMP_pressure;BME280_temperature;BME280_humidity;BME280_pressure;Samples;Min_cycle;Max_cycle;Signal;HPM_P1;HPM_P2
2023/02/20 00:01:54;;;;;;;0.85;0.85;;;;;;;2.92;74.40;100380.28;5114412;28;20067;-68
2023/02/20 00:04:22;;;;;;;0.38;0.38;;;;;;;2.91;75.14;100386.09;5114356;28;20043;-67
2023/02/20 00:06:51;;;;;;;0.30;0.30;;;;;;;2.93;74.72;100387.03;5114555;28;20101;-67
2023/02/20 00:09:21;;;;;;;0.60;0.60;;;;;;;2.91;75.29;100391.13;5114199;28;20043;-67
2023/02/20 00:11:50;;;;;;;0.60;0.60;;;;;;;2.92;74.57;100391.22;5113259;28;20071;-66
2023/02/20 00:14:19;;;;;;;0.60;0.60;;;;;;;2.88;74.56;100393.56;5114206;28;20036;-66
2023/02/20 00:16:48;;;;;;;0.33;0.33;;;;;;;2.87;74.84;100394.34;5114114;28;20040;-66
2023/02/20 00:19:17;;;;;;;2.60;1.20;;;;;;;2.83;75.71;100395.03;5113833;28;20322;-68
2023/02/20 00:21:47;;;;;;;1.77;1.63;;;;;;;2.70;75.35;100381.91;5114337;28;20069;-67
2023/02/20 00:24:17;;;;;;;0.65;0.65;;;;;;;2.71;76.02;100395.38;5114422;28;20092;-67
2023/02/20 00:26:49;;;;;;;0.52;0.52;;;;;;;2.72;75.59;100382.84;5114387;28;20158;-66
2023/02/20 00:29:21;;;;;;;0.32;0.32;;;;;;;2.81;76.17;100381.50;5114061;28;20105;-66
2023/02/20 00:31:53;;;;;;;0.50;0.50;;;;;;;2.85;76.10;100378.31;5113950;28;20053;-66
2023/02/20 00:34:22;;;;;;;1.33;1.23;;;;;;;2.86;76.13;100374.97;5112881;28;20051;-66
2023/02/20 00:36:51;;;;;;;0.40;0.40;;;;;;;2.85;76.04;100373.25;5114520;28;20073;-66
2023/02/20 00:39:20;;;;;;;0.40;0.40;;;;;;;2.76;76.54;100377.94;5112736;28;20048;-66
2023/02/20 00:41:51;;;;;;;0.43;0.43;;;;;;;2.77;75.99;100374.59;5114167;28;20137;-67
2023/02/20 00:44:20;;;;;;;0.65;0.65;;;;;;;2.75;76.47;100366.13;5114308;28;20066;-67
2023/02/20 00:46:49;;;;;;;1.17;1.07;;;;;;;2.69;76.31;100362.53;5113215;28;20447;-67
2023/02/20 00:49:18;;;;;;;1.13;1.08;;;;;;;2.60;75.72;100359.66;5113769;28;20052;-66
2023/02/20 00:51:47;;;;;;;0.40;0.40;;;;;;;2.56;76.75;100374.56;5112757;28;20130;-66
2023/02/20 00:54:16;;;;;;;5.13;2.83;;;;;;;2.47;76.82;100364.97;5112902;28;20126;-66
2023/02/20 00:56:46;;;;;;;0.60;0.60;;;;;;;2.41;76.04;100371.41;5114055;28;20085;-66
2023/02/20 00:59:16;;;;;;;0.43;0.43;;;;;;;2.38;76.32;100361.19;5114003;28;20071;-67
2023/02/20 01:01:44;;;;;;;0.50;0.50;;;;;;;2.25;76.51;100347.25;5118259;28;20603;-66
2023/02/20 01:04:14;;;;;;;0.60;0.60;;;;;;;2.33;76.97;100363.50;5118095;28;20485;-66
2023/02/20 01:06:43;;;;;;;0.40;0.40;;;;;;;2.31;76.95;100362.59;5118017;28;20513;-67
2023/02/20 01:09:12;;;;;;;1.00;1.00;;;;;;;2.22;77.38;100364.72;5116406;28;20044;-67
2023/02/20 01:11:42;;;;;;;0.57;0.57;;;;;;;2.17;77.29;100356.09;5117899;28;20067;-67
2023/02/20 01:14:12;;;;;;;0.40;0.40;;;;;;;2.14;77.44;100353.44;5116687;28;20039;-67
2023/02/20 01:16:46;;;;;;;1.67;1.58;;;;;;;2.11;77.06;100347.44;5117522;28;20126;-67
2023/02/20 01:19:15;;;;;;;0.50;0.50;;;;;;;2.06;76.79;100347.25;5117300;28;20135;-67
2023/02/20 01:21:44;;;;;;;0.50;0.50;;;;;;;2.06;76.80;100334.66;5117768;28;20039;-67
2023/02/20 01:24:13;;;;;;;0.77;0.77;;;;;;;2.07;77.38;100331.31;5117352;28;20040;-67
2023/02/20 01:26:42;;;;;;;0.50;0.50;;;;;;;2.01;76.97;100341.16;5116739;28;20101;-66
2023/02/20 01:29:11;;;;;;;0.50;0.50;;;;;;;1.96;77.61;100342.59;5116055;28;20043;-66
2023/02/20 01:31:40;;;;;;;0.80;0.80;;;;;;;1.92;76.96;100339.06;5117687;28;20077;-67
2023/02/20 01:34:10;;;;;;;;;;;;;;;1.83;77.04;100341.19;5116364;28;20133;-67
2023/02/20 01:36:45;;;;;;;1.02;0.98;;;;;;;1.84;77.66;100332.84;5116051;28;20002;-66
2023/02/20 01:39:16;;;;;;;0.35;0.35;;;;;;;1.91;77.43;100334.84;5117196;28;20485;-66
2023/02/20 01:41:47;;;;;;;0.30;0.30;;;;;;;1.86;78.20;100330.41;5116143;28;20052;-66
2023/02/20 01:44:21;;;;;;;0.50;0.50;;;;;;;1.81;77.63;100332.72;5115871;28;20043;-67
2023/02/20 01:46:53;;;;;;;0.40;0.40;;;;;;;1.84;78.31;100324.44;5115833;28;20040;-67
2023/02/20 01:49:34;;;;;;;0.60;0.60;;;;;;;1.87;77.85;100322.06;5116880;28;20048;-66
2023/02/20 01:52:10;;;;;;;0.52;0.52;;;;;;;1.87;77.79;100322.06;5117231;28;20067;-65
2023/02/20 01:54:43;;;;;;;1.10;0.85;;;;;;;1.80;77.62;100325.09;5115894;28;20460;-65
2023/02/20 01:57:17;;;;;;;0.60;0.60;;;;;;;1.80;78.19;100325.09;5116803;28;20047;-65
2023/02/20 01:59:48;;;;;;;0.82;0.82;;;;;;;1.80;78.79;100341.03;5115544;28;20043;-66
2023/02/20 02:02:17;;;;;;;1.25;1.13;;;;;;;1.86;78.96;100353.03;5116688;28;20049;-66
2023/02/20 02:04:49;;;;;;;0.45;0.45;;;;;;;1.95;78.51;100345.88;5116533;28;20498;-66
2023/02/20 02:07:18;;;;;;;0.50;0.50;;;;;;;2.05;78.36;100342.97;5116604;28;20073;-67
2023/02/20 02:09:53;;;;;;;0.77;0.77;;;;;;;2.13;78.83;100351.75;5116494;28;20040;-66
2023/02/20 02:12:22;;;;;;;1.13;1.02;;;;;;;2.19;78.54;100352.00;5114794;28;20044;-66
2023/02/20 02:14:51;;;;;;;0.88;0.75;;;;;;;2.27;79.17;100353.19;5115457;28;20097;-66
2023/02/20 02:17:48;;;;;;;0.70;0.70;;;;;;;2.36;79.20;100356.09;5116752;28;20040;-67
2023/02/20 02:20:53;;;;;;;0.52;0.52;;;;;;;2.44;79.42;100349.75;5116360;28;20059;-66
2023/02/20 02:23:54;;;;;;;1.00;0.98;;;;;;;2.54;79.20;100348.47;5116245;28;20067;-66
2023/02/20 02:26:47;;;;;;;0.55;0.55;;;;;;;2.59;78.78;100349.53;5116550;28;20044;-67
2023/02/20 02:29:38;;;;;;;0.40;0.40;;;;;;;2.64;78.68;100346.38;5116402;27;20532;-65
2023/02/20 02:32:39;;;;;;;0.63;0.63;;;;;;;2.67;79.06;100349.03;5116429;28;20078;-65
2023/02/20 02:35:35;;;;;;;0.35;0.32;;;;;;;2.69;78.86;100347.41;5105021;28;20035;-66
2023/02/20 02:38:18;;;;;;;0.80;0.80;;;;;;;2.76;78.46;100337.59;5116012;28;20059;-65
2023/02/20 02:40:54;;;;;;;0.40;0.40;;;;;;;2.84;78.04;100343.81;5114756;28;20051;-66
2023/02/20 02:43:32;;;;;;;0.50;0.50;;;;;;;2.86;78.81;100347.25;5115907;28;20082;-66
2023/02/20 02:46:09;;;;;;;0.43;0.43;;;;;;;2.85;78.38;100351.44;5115804;28;20050;-66
2023/02/20 02:48:45;;;;;;;0.47;0.47;;;;;;;2.87;78.05;100338.88;5114877;28;20047;-65
2023/02/20 02:51:19;;;;;;;0.73;0.73;;;;;;;2.93;78.09;100336.63;5116035;28;20039;-65
2023/02/20 02:54:12;;;;;;;0.63;0.63;;;;;;;2.92;78.56;100337.41;5115720;28;20044;-67
2023/02/20 02:56:44;;;;;;;0.40;0.40;;;;;;;2.94;78.52;100336.69;5115598;28;20043;-66
2023/02/20 02:59:18;;;;;;;0.30;0.30;;;;;;;2.93;77.73;100329.91;5114427;28;20040;-67
2023/02/20 03:01:53;;;;;;;1.50;1.40;;;;;;;2.92;78.38;100332.38;5115511;28;20047;-65
2023/02/20 03:04:29;;;;;;;0.65;0.65;;;;;;;2.87;78.52;100336.38;5115507;28;20048;-67
2023/02/20 03:07:03;;;;;;;0.63;0.63;;;;;;;2.84;77.69;100331.19;5115665;28;20101;-67
2023/02/20 03:09:39;;;;;;;0.60;0.60;;;;;;;2.83;77.78;100339.56;5115303;28;20058;-67
2023/02/20 03:12:12;;;;;;;0.70;0.70;;;;;;;2.80;78.39;100334.41;5115366;28;20059;-65
2023/02/20 03:17:31;;;;;;;0.73;0.73;;;;;;;2.57;78.77;100344.41;5115607;28;20097;-66
2023/02/20 03:20:03;;;;;;;0.32;0.32;;;;;;;2.51;77.99;100345.81;5115076;28;20058;-66
2023/02/20 03:22:37;;;;;;;0.43;0.43;;;;;;;2.45;79.01;100341.38;5115136;28;20560;-67
2023/02/20 03:25:17;;;;;;;1.02;1.02;;;;;;;2.50;78.49;100344.94;5114149;28;20134;-66
2023/02/20 03:27:52;;;;;;;0.45;0.45;;;;;;;2.48;79.19;100330.56;5115576;27;20055;-65
2023/02/20 03:30:25;;;;;;;0.30;0.30;;;;;;;2.44;78.81;100324.56;5113699;28;20046;-65
2023/02/20 03:43:47;;;;;;;1.65;1.08;;;;;;;2.44;79.04;100329.59;5113538;28;20074;-65
2023/02/20 03:46:22;;;;;;;1.67;1.42;;;;;;;2.42;79.55;100325.28;5113494;28;20079;-66
2023/02/20 03:48:57;;;;;;;0.50;0.50;;;;;;;2.32;79.68;100338.28;5114894;28;20073;-66
2023/02/20 03:51:27;;;;;;;0.30;0.30;;;;;;;2.26;79.74;100343.91;5114892;28;20406;-67
2023/02/20 03:54:02;;;;;;;1.10;1.00;;;;;;;2.20;79.45;100348.69;5113393;28;20067;-67
2023/02/20 03:56:37;;;;;;;0.55;0.55;;;;;;;2.23;80.07;100358.88;5114816;28;20485;-66
2023/02/20 03:59:12;;;;;;;0.40;0.40;;;;;;;2.24;80.44;100354.69;5113237;28;20036;-67
2023/02/20 04:01:43;;;;;;;0.95;0.95;;;;;;;2.17;79.85;100348.56;5113326;28;20085;-67
2023/02/20 04:04:17;;;;;;;0.40;0.40;;;;;;;2.17;80.68;100366.19;5113230;28;20052;-66
2023/02/20 04:06:50;;;;;;;2.15;1.58;;;;;;;2.18;80.80;100360.34;5114344;28;20048;-66
2023/02/20 04:09:26;;;;;;;1.05;1.05;;;;;;;2.18;80.24;100364.53;5113066;28;20055;-66
2023/02/20 04:12:00;;;;;;;0.70;0.70;;;;;;;2.12;81.30;100361.72;5113014;28;20047;-68
2023/02/20 04:14:32;;;;;;;1.33;1.27;;;;;;;2.16;80.78;100366.13;5114251;28;20558;-67
2023/02/20 04:17:08;;;;;;;0.93;0.93;;;;;;;2.12;81.36;100365.13;5114244;28;20047;-67
2023/02/20 04:19:37;;;;;;;2.05;1.85;;;;;;;2.10;80.74;100361.66;5112759;28;20055;-67
2023/02/20 04:22:14;;;;;;;0.70;0.70;;;;;;;2.06;80.96;100361.47;5112884;28;20048;-67
2023/02/20 04:24:48;;;;;;;0.40;0.40;;;;;;;2.04;81.80;100371.47;5112978;28;20104;-67
2023/02/20 04:27:19;;;;;;;1.10;1.10;;;;;;;2.13;81.95;100376.06;5112926;28;20138;-66
2023/02/20 04:29:53;;;;;;;0.40;0.40;;;;;;;2.21;81.90;100375.56;5114017;28;20047;-65
2023/02/20 04:32:22;;;;;;;0.73;0.73;;;;;;;2.21;81.80;100370.53;5112821;28;20093;-66
2023/02/20 04:34:53;;;;;;;1.15;1.05;;;;;;;2.21;82.64;100380.59;5113514;28;20143;-66
2023/02/20 04:37:22;;;;;;;0.57;0.57;;;;;;;2.24;82.53;100385.78;5112758;28;20046;-66
2023/02/20 04:39:54;;;;;;;3.13;1.58;;;;;;;2.15;82.38;100365.25;5113064;28;20039;-66
2023/02/20 04:42:24;;;;;;;0.82;0.82;;;;;;;2.13;82.18;100376.91;5112680;28;20089;-66
2023/02/20 04:44:53;;;;;;;3.28;1.67;;;;;;;2.19;81.80;100376.31;5112734;28;20113;-66
2023/02/20 04:47:22;;;;;;;0.60;0.60;;;;;;;2.17;81.83;100378.75;5112627;28;20039;-67
2023/02/20 04:49:51;;;;;;;0.30;0.30;;;;;;;2.11;82.38;100377.66;5112563;28;20068;-67
2023/02/20 04:52:23;;;;;;;0.20;0.20;;;;;;;2.04;81.91;100372.31;5113803;28;20147;-66
2023/02/20 04:54:54;;;;;;;0.80;0.80;;;;;;;1.97;81.99;100365.31;5113803;28;20043;-65
2023/02/20 04:57:24;;;;;;;0.53;0.53;;;;;;;1.92;82.66;100365.91;5112863;28;20042;-66
2023/02/20 04:59:53;;;;;;;1.70;1.60;;;;;;;1.89;82.19;100365.78;5112608;28;20040;-66
2023/02/20 05:02:22;;;;;;;0.43;0.43;;;;;;;1.83;82.72;100378.06;5113661;28;20040;-67
2023/02/20 05:04:51;;;;;;;0.70;0.70;;;;;;;1.85;82.45;100371.44;5113753;28;20520;-67
2023/02/20 05:07:20;;;;;;;0.40;0.40;;;;;;;1.84;83.26;100357.16;5114031;28;20119;-67
2023/02/20 05:09:49;;;;;;;0.50;0.50;;;;;;;1.87;82.64;100372.41;5113580;28;20032;-65
2023/02/20 05:12:18;;;;;;;1.10;1.10;;;;;;;1.87;83.40;100372.41;5113888;28;20429;-66
2023/02/20 05:14:48;;;;;;;0.93;0.93;;;;;;;1.87;83.60;100373.22;5113898;28;20040;-66
2023/02/20 05:17:17;;;;;;;0.50;0.50;;;;;;;1.91;83.66;100372.59;5113893;28;20468;-68
2023/02/20 05:19:45;;;;;;;0.77;0.77;;;;;;;1.94;83.96;100374.38;5113405;28;20489;-67
2023/02/20 05:22:20;;;;;;;2.40;1.13;;;;;;;2.01;84.11;100372.22;5113493;28;20043;-67
2023/02/20 05:24:51;;;;;;;0.63;0.63;;;;;;;2.02;83.08;100368.00;5113437;28;20275;-66
2023/02/20 05:27:22;;;;;;;0.30;0.30;;;;;;;1.98;83.42;100372.06;5113504;28;20044;-67
2023/02/20 05:29:54;;;;;;;1.17;1.15;;;;;;;1.99;83.82;100367.91;5113744;28;20481;-68
2023/02/20 05:32:25;;;;;;;2.17;1.45;;;;;;;2.02;84.20;100368.00;5113707;28;20405;-66
2023/02/20 05:34:55;;;;;;;1.13;1.13;;;;;;;2.02;84.10;100362.97;5113435;28;20052;-66
2023/02/20 05:37:26;;;;;;;0.80;0.80;;;;;;;2.02;83.89;100363.84;5113741;28;20501;-68
2023/02/20 05:39:55;;;;;;;1.85;0.68;;;;;;;2.04;84.24;100354.69;5113441;28;20093;-68
2023/02/20 05:42:23;;;;;;;1.23;1.05;;;;;;;2.06;84.81;100358.97;5113671;28;20040;-67
2023/02/20 05:44:54;;;;;;;0.40;0.40;;;;;;;2.08;84.47;100363.25;5113667;28;20039;-67
2023/02/20 05:47:23;;;;;;;0.85;0.85;;;;;;;2.13;84.70;100364.34;5114797;28;20048;-68
2023/02/20 05:49:52;;;;;;;0.67;0.67;;;;;;;2.22;83.99;100367.25;5116885;28;20067;-68
2023/02/20 05:52:21;;;;;;;1.38;1.27;;;;;;;2.32;84.24;100379.44;5116769;28;20124;-67
2023/02/20 05:54:49;;;;;;;0.63;0.63;;;;;;;2.45;84.67;100386.72;5116763;28;20562;-66
2023/02/20 05:57:19;;;;;;;0.50;0.50;;;;;;;2.50;84.68;100392.81;5116744;28;20097;-66
2023/02/20 05:59:47;;;;;;;0.40;0.40;;;;;;;2.54;84.35;100392.13;5116780;28;20466;-66
2023/02/20 06:02:18;;;;;;;0.37;0.37;;;;;;;2.60;84.47;100392.41;5116641;28;20067;-68
2023/02/20 06:04:46;;;;;;;1.17;1.10;;;;;;;2.71;84.30;100393.69;5116606;28;20079;-67
2023/02/20 06:07:15;;;;;;;0.43;0.43;;;;;;;2.76;84.17;100388.00;5116625;28;20069;-67
2023/02/20 06:09:44;;;;;;;0.40;0.40;;;;;;;2.73;83.72;100389.56;5116816;27;20040;-68
2023/02/20 06:12:14;;;;;;;1.08;1.02;;;;;;;2.82;83.70;100393.28;5116392;28;20039;-67
2023/02/20 06:14:43;;;;;;;0.60;0.60;;;;;;;2.88;83.69;100399.44;5116437;28;20040;-67
2023/02/20 06:17:11;;;;;;;0.77;0.77;;;;;;;2.92;82.80;100387.84;5116684;28;20051;-68
2023/02/20 06:19:42;;;;;;;0.60;0.60;;;;;;;2.98;82.87;100395.63;5116145;28;20394;-68
2023/02/20 06:22:10;;;;;;;0.40;0.40;;;;;;;2.99;82.87;100402.41;5116250;27;20075;-68
2023/02/20 06:24:39;;;;;;;0.63;0.63;;;;;;;3.04;83.05;100406.84;5116543;28;20062;-68
2023/02/20 06:27:08;;;;;;;0.28;0.28;;;;;;;3.09;82.91;100404.50;5114893;28;20504;-68
2023/02/20 06:29:37;;;;;;;0.30;0.30;;;;;;;3.05;82.49;100397.59;5116391;28;20470;-68
2023/02/20 06:32:06;;;;;;;0.60;0.60;;;;;;;3.06;82.13;100396.81;5116043;28;20051;-67
2023/02/20 06:34:35;;;;;;;0.32;0.32;;;;;;;3.12;81.97;100410.53;5116065;28;20043;-68
2023/02/20 06:37:05;;;;;;;0.30;0.30;;;;;;;3.13;82.46;100412.25;5116051;28;20036;-68
2023/02/20 06:39:34;;;;;;;0.50;0.50;;;;;;;3.17;81.74;100403.13;5116497;28;20431;-67
2023/02/20 06:42:03;;;;;;;0.67;0.67;;;;;;;3.15;82.01;100414.81;5115976;28;20044;-67
2023/02/20 06:44:32;;;;;;;0.30;0.30;;;;;;;3.14;82.32;100428.25;5115807;28;20048;-67
2023/02/20 06:47:01;;;;;;;0.60;0.60;;;;;;;3.17;82.16;100423.31;5116118;28;20575;-68
2023/02/20 06:49:30;;;;;;;0.30;0.30;;;;;;;3.22;81.36;100426.88;5115736;28;20089;-68
2023/02/20 06:51:59;;;;;;;0.53;0.53;;;;;;;3.23;81.71;100424.44;5115995;28;20120;-67
2023/02/20 06:54:33;;;;;;;1.10;1.02;;;;;;;3.18;81.53;100425.06;5115879;28;20409;-69
2023/02/20 06:57:02;;;;;;;0.30;0.30;;;;;;;3.09;81.23;100419.63;5115607;28;20063;-69
2023/02/20 06:59:31;;;;;;;0.75;0.75;;;;;;;2.99;82.34;100413.38;5115345;28;20050;-69
2023/02/20 07:02:00;;;;;;;0.40;0.40;;;;;;;2.92;81.50;100415.56;5115376;28;20047;-68
2023/02/20 07:04:29;;;;;;;0.73;0.73;;;;;;;2.90;82.12;100407.09;5115755;28;20040;-69
2023/02/20 07:06:58;;;;;;;0.80;0.80;;;;;;;2.88;82.54;100403.63;5115393;28;20122;-67
2023/02/20 07:09:27;;;;;;;1.13;1.07;;;;;;;2.89;82.92;100405.34;5115431;28;20085;-66
2023/02/20 07:11:58;;;;;;;1.17;1.07;;;;;;;2.86;83.06;100400.16;5115182;28;20036;-67
2023/02/20 07:14:26;;;;;;;0.68;0.68;;;;;;;3.03;82.90;100419.38;5115273;28;20573;-68
2023/02/20 07:16:55;;;;;;;0.50;0.50;;;;;;;3.07;83.17;100421.25;5115150;28;20046;-67
2023/02/20 07:19:24;;;;;;;0.95;0.88;;;;;;;3.07;83.25;100421.25;5115132;28;20085;-68
2023/02/20 07:21:53;;;;;;;0.50;0.50;;;;;;;3.10;82.63;100416.31;5115148;27;20116;-67
2023/02/20 07:24:21;;;;;;;0.50;0.50;;;;;;;3.04;83.27;100408.50;5114953;27;20138;-67
2023/02/20 07:26:50;;;;;;;0.40;0.40;;;;;;;3.07;83.22;100416.19;5115037;28;20070;-67
2023/02/20 07:29:21;;;;;;;0.40;0.40;;;;;;;3.14;83.23;100418.16;5115231;28;20042;-65
2023/02/20 07:31:49;;;;;;;1.15;1.10;;;;;;;3.16;82.94;100414.03;5114481;28;20069;-64
2023/02/20 07:34:19;;;;;;;0.32;0.32;;;;;;;3.09;83.62;100412.94;5114983;28;20044;-65
2023/02/20 07:36:47;;;;;;;0.50;0.50;;;;;;;3.00;83.12;100401.63;5113639;28;20036;-65
2023/02/20 07:39:16;;;;;;;0.80;0.80;;;;;;;2.92;83.10;100408.88;5114730;28;20072;-66
2023/02/20 07:41:45;;;;;;;0.43;0.43;;;;;;;2.93;83.79;100414.78;5114704;28;20050;-66
2023/02/20 07:44:26;;;;;;;0.30;0.30;;;;;;;3.01;83.58;100405.84;5110443;28;20047;-65
2023/02/20 07:46:55;;;;;;;0.52;0.52;;;;;;;3.05;83.91;100413.59;5094558;28;20085;-66
2023/02/20 07:49:24;;;;;;;0.47;0.47;;;;;;;3.06;84.04;100419.50;5094272;28;20067;-66
2023/02/20 07:51:53;;;;;;;0.88;0.88;;;;;;;3.10;84.52;100418.81;5094463;28;20055;-66
2023/02/20 07:54:22;;;;;;;0.50;0.50;;;;;;;3.12;84.42;100427.34;5094211;28;20127;-67
2023/02/20 07:56:51;;;;;;;0.40;0.40;;;;;;;3.18;84.80;100412.44;5094069;28;20074;-66
2023/02/20 07:59:20;;;;;;;0.75;0.75;;;;;;;3.21;84.99;100427.69;5095004;28;20374;-67
2023/02/20 08:01:50;;;;;;;0.32;0.32;;;;;;;3.21;85.19;100430.22;5094076;28;20044;-66
2023/02/20 08:04:19;;;;;;;0.50;0.50;;;;;;;3.24;85.42;100417.72;5094274;28;20080;-67
2023/02/20 08:06:48;;;;;;;0.43;0.43;;;;;;;3.21;84.88;100422.66;5094339;28;20121;-65
2023/02/20 08:09:16;;;;;;;0.50;0.50;;;;;;;3.15;84.50;100409.78;5094022;28;20036;-65
2023/02/20 08:11:45;;;;;;;0.30;0.30;;;;;;;3.01;85.25;100409.25;5094069;28;20032;-65
2023/02/20 08:14:15;;;;;;;1.38;1.33;;;;;;;2.94;85.16;100412.31;5094045;28;20631;-65
2023/02/20 08:16:44;;;;;;;0.73;0.63;;;;;;;2.90;84.88;100412.13;5092895;28;20101;-66
2023/02/20 08:19:14;;;;;;;0.60;0.60;;;;;;;2.92;85.58;100405.47;5093626;28;20072;-65
2023/02/20 08:21:43;;;;;;;0.40;0.40;;;;;;;3.04;85.42;100416.94;5093688;28;20066;-66
2023/02/20 08:24:12;;;;;;;0.25;0.25;;;;;;;3.03;86.08;100414.31;5093995;28;20126;-65
2023/02/20 08:26:44;;;;;;;2.25;1.40;;;;;;;2.93;86.02;100412.25;5093627;28;20574;-65
2023/02/20 08:29:13;;;;;;;0.65;0.65;;;;;;;2.91;86.55;100408.78;5093709;28;20061;-65
2023/02/20 08:31:42;;;;;;;0.60;0.60;;;;;;;2.82;85.85;100394.16;5098849;28;20072;-65
2023/02/20 08:34:11;;;;;;;1.00;1.00;;;;;;;2.78;86.66;100387.28;5093288;28;20040;-65
2023/02/20 08:36:42;;;;;;;0.63;0.63;;;;;;;2.75;86.42;100398.88;5093241;28;20123;-65
2023/02/20 08:39:11;;;;;;;0.75;0.75;;;;;;;2.72;86.62;100392.03;5093408;28;20133;-65
2023/02/20 08:41:43;;;;;;;0.67;0.67;;;;;;;2.78;87.16;100382.25;5093328;28;20040;-65
2023/02/20 08:44:12;;;;;;;1.15;0.80;;;;;;;2.82;87.00;100380.69;5093596;28;20315;-66
2023/02/20 08:46:46;;;;;;;0.68;0.68;;;;;;;2.86;87.22;100390.09;5093304;28;20132;-64
2023/02/20 08:49:17;;;;;;;0.40;0.40;;;;;;;2.87;87.50;100396.88;5093477;28;20105;-65
2023/02/20 08:51:49;;;;;;;0.93;0.93;;;;;;;2.90;87.81;100397.88;5093456;28;20106;-66
2023/02/20 08:54:19;;;;;;;0.47;0.47;;;;;;;2.91;88.22;100413.81;5093763;28;20132;-65
2023/02/20 08:56:47;;;;;;;1.30;1.20;;;;;;;2.91;87.40;100398.69;5093440;28;20072;-64
2023/02/20 08:59:16;;;;;;;0.70;0.70;;;;;;;2.92;88.25;100405.47;5093333;28;20032;-65
2023/02/20 09:01:45;;;;;;;0.83;0.83;;;;;;;2.92;88.41;100396.25;5093715;28;20067;-65
2023/02/20 09:04:15;;;;;;;0.90;0.90;;;;;;;2.97;88.64;100393.94;5102702;28;20048;-66
2023/02/20 09:06:44;;;;;;;0.63;0.63;;;;;;;3.05;87.88;100397.59;5094275;28;20060;-65
2023/02/20 09:09:15;;;;;;;1.00;0.98;;;;;;;3.06;88.47;100395.16;5094123;28;20071;-65
2023/02/20 09:11:44;;;;;;;1.05;1.05;;;;;;;3.18;88.67;100389.75;5113535;28;20054;-66
2023/02/20 09:14:13;;;;;;;0.55;0.55;;;;;;;3.21;88.67;100384.81;5108469;28;20043;-65
2023/02/20 09:16:42;;;;;;;1.38;1.27;;;;;;;3.16;88.56;100366.13;5105104;28;20043;-65
2023/02/20 09:19:12;;;;;;;7.73;1.80;;;;;;;3.21;89.10;100359.59;5113473;28;20044;-65
2023/02/20 09:21:45;;;;;;;1.67;1.58;;;;;;;3.34;88.68;100351.69;5114775;28;20031;-66
2023/02/20 09:24:16;;;;;;;1.23;1.13;;;;;;;3.42;89.12;100344.44;5114778;28;20079;-66
2023/02/20 09:26:44;;;;;;;0.98;0.98;;;;;;;3.47;88.87;100353.91;5116900;28;20046;-65
2023/02/20 09:29:13;;;;;;;2.17;1.27;;;;;;;3.59;89.16;100349.31;5114333;28;20122;-66
2023/02/20 09:31:42;;;;;;;1.43;1.33;;;;;;;3.62;89.50;100343.53;5116802;27;20034;-66
2023/02/20 09:34:11;;;;;;;0.88;0.85;;;;;;;3.62;89.44;100338.47;5117173;28;20334;-65
2023/02/20 09:36:39;;;;;;;0.63;0.63;;;;;;;3.68;88.88;100339.56;5117189;28;20397;-65
2023/02/20 09:39:08;;;;;;;0.63;0.63;;;;;;;3.71;89.12;100334.63;5113325;28;20093;-66
2023/02/20 09:42:04;;;;;;;1.77;1.67;;;;;;;3.74;89.71;100322.09;5116156;28;20032;-66
2023/02/20 09:44:43;;;;;;;0.60;0.60;;;;;;;3.79;89.28;100315.56;5104155;28;20075;-66
2023/02/20 09:47:28;;;;;;;0.65;0.65;;;;;;;3.86;89.31;100314.97;5117293;28;20061;-67
2023/02/20 09:50:03;;;;;;;0.77;0.68;;;;;;;3.90;89.41;100293.25;5113258;28;20123;-67
2023/02/20 09:52:38;;;;;;;0.40;0.40;;;;;;;3.95;89.99;100294.25;5112742;28;20075;-69
2023/02/20 09:55:13;;;;;;;0.40;0.40;;;;;;;3.98;89.55;100299.44;5117004;28;20052;-67
2023/02/20 09:57:48;;;;;;;5.93;3.40;;;;;;;4.05;89.74;100297.16;5116795;28;20043;-69
2023/02/20 10:00:25;;;;;;;0.93;0.93;;;;;;;4.12;89.63;100299.91;5116694;28;20048;-69
2023/02/20 10:03:03;;;;;;;0.77;0.77;;;;;;;4.16;89.71;100304.25;5112683;28;20048;-69
2023/02/20 10:05:33;;;;;;;0.70;0.70;;;;;;;4.15;89.59;100292.44;5116924;28;20063;-68
2023/02/20 10:08:02;;;;;;;1.27;1.17;;;;;;;4.15;89.70;100292.44;5116386;28;20489;-66
2023/02/20 10:10:37;;;;;;;1.80;0.83;;;;;;;4.14;89.75;100285.66;5096091;28;20041;-69
2023/02/20 10:13:29;;;;;;;3.85;1.90;;;;;;;4.17;89.84;100285.75;5113353;28;20035;-69
2023/02/20 10:16:08;;;;;;;0.93;0.93;;;;;;;4.22;89.32;100284.25;5116407;28;20069;-67
2023/02/20 10:18:47;;;;;;;1.35;1.25;;;;;;;4.26;89.93;100286.94;5116168;28;20074;-67
2023/02/20 10:21:29;;;;;;;0.87;0.87;;;;;;;4.29;89.37;100283.66;5116735;27;20498;-67
2023/02/20 10:24:07;;;;;;;1.90;1.40;;;;;;;4.29;89.37;100273.56;5116218;28;20498;-68
2023/02/20 10:26:41;;;;;;;0.63;0.63;;;;;;;4.33;89.48;100272.84;5109308;28;20044;-68
2023/02/20 10:29:18;;;;;;;0.60;0.60;;;;;;;4.39;89.73;100273.06;5103368;28;20064;-67
2023/02/20 10:31:52;;;;;;;0.68;0.68;;;;;;;4.45;89.39;100266.53;5095678;28;20051;-68
2023/02/20 10:34:29;;;;;;;1.33;1.15;;;;;;;4.49;89.76;100264.94;5094916;28;20089;-68
2023/02/20 10:37:06;;;;;;;0.63;0.60;;;;;;;4.56;89.31;100274.44;5102291;28;20481;-68
2023/02/20 10:39:39;;;;;;;0.47;0.47;;;;;;;4.62;89.62;100262.88;5095190;28;20043;-68
2023/02/20 10:42:12;;;;;;;1.45;1.35;;;;;;;4.68;89.43;100257.16;5096953;28;20359;-67
2023/02/20 10:44:50;;;;;;;1.45;1.35;;;;;;;4.74;89.73;100262.41;5110320;28;20136;-67
2023/02/20 10:47:27;;;;;;;1.35;1.20;;;;;;;4.79;89.68;100249.91;5116201;28;20138;-69
2023/02/20 10:50:02;;;;;;;0.88;0.88;;;;;;;4.86;90.16;100247.63;5115725;28;20044;-67
2023/02/20 10:52:40;;;;;;;0.63;0.63;;;;;;;4.87;89.73;100234.16;5114903;28;20507;-69
2023/02/20 10:55:15;;;;;;;1.25;1.15;;;;;;;4.92;89.81;100219.97;5116069;28;20087;-68
2023/02/20 10:57:49;;;;;;;0.30;0.30;;;;;;;4.99;89.91;100228.63;5115928;28;20048;-68
2023/02/20 11:00:24;;;;;;;0.50;0.50;;;;;;;5.00;90.14;100216.03;5115944;28;20047;-67
2023/02/20 11:03:00;;;;;;;0.68;0.68;;;;;;;5.09;90.28;100211.22;5115755;28;20097;-70
2023/02/20 11:05:32;;;;;;;1.13;1.05;;;;;;;5.12;90.13;100210.47;5115567;28;20108;-68
2023/02/20 11:08:01;;;;;;;0.60;0.60;;;;;;;5.13;90.19;100195.34;5107615;28;20040;-70
2023/02/20 11:10:31;;;;;;;0.80;0.80;;;;;;;5.19;89.75;100194.66;5110265;27;20039;-68
2023/02/20 11:13:01;;;;;;;1.92;1.23;;;;;;;5.23;89.80;100184.66;5112751;28;20059;-70
2023/02/20 11:15:32;;;;;;;;;;;;;;;5.30;90.17;100186.53;5108645;28;20059;-68
2023/02/20 11:18:01;;;;;;;1.13;0.90;;;;;;;5.34;90.27;100165.59;5113152;28;19920;-68
2023/02/20 11:20:45;;;;;;;0.90;0.90;;;;;;;5.39;90.32;100161.50;5105587;28;20047;-66
2023/02/20 11:23:35;;;;;;;0.63;0.63;;;;;;;5.43;90.54;100153.19;5094710;28;20075;-67
2023/02/20 11:26:25;;;;;;;0.77;0.77;;;;;;;5.52;89.89;100141.59;5095029;28;20577;-67
2023/02/20 11:29:00;;;;;;;1.10;0.85;;;;;;;5.61;89.91;100132.56;5094952;28;20135;-68
2023/02/20 11:31:31;;;;;;;0.30;0.30;;;;;;;5.76;90.19;100132.13;5094912;28;20048;-66
2023/02/20 11:34:03;;;;;;;0.98;0.88;;;;;;;5.83;90.22;100128.91;5094399;28;20055;-68
2023/02/20 11:36:38;;;;;;;1.02;0.95;;;;;;;5.87;90.39;100125.66;5096652;28;20460;-67
2023/02/20 11:39:20;;;;;;;2.03;0.88;;;;;;;5.89;90.27;100118.94;5113626;28;20122;-68
2023/02/20 11:42:05;;;;;;;1.48;1.38;;;;;;;5.94;89.81;100130.06;5113204;28;20435;-67
2023/02/20 11:44:34;;;;;;;0.70;0.70;;;;;;;6.00;90.30;100123.47;5093471;28;20056;-67
2023/02/20 11:47:20;;;;;;;0.87;0.83;;;;;;;6.06;90.00;100127.81;5096478;28;20127;-68
2023/02/20 11:49:49;;;;;;;0.95;0.93;;;;;;;6.06;90.07;100108.41;5114569;28;20121;-67
2023/02/20 11:52:21;;;;;;;1.20;1.10;;;;;;;6.23;90.27;100116.41;5114632;28;20114;-68
2023/02/20 11:55:10;;;;;;;1.15;1.08;;;;;;;6.33;90.06;100107.34;5114852;28;20472;-66
2023/02/20 11:57:44;;;;;;;2.17;1.83;;;;;;;6.39;89.77;100103.28;5109142;28;20043;-69
2023/02/20 12:00:18;;;;;;;1.63;1.52;;;;;;;6.49;89.55;100105.19;5105607;28;20127;-68
2023/02/20 12:02:55;;;;;;;0.60;0.60;;;;;;;6.46;89.11;100100.03;5097322;28;20521;-67
2023/02/20 12:05:38;;;;;;;0.65;0.65;;;;;;;6.65;89.45;100114.84;5093980;28;20052;-68
2023/02/20 12:08:29;;;;;;;0.73;0.57;;;;;;;6.68;88.90;100099.69;5097910;28;20150;-68
2023/02/20 12:11:02;;;;;;;0.60;0.60;;;;;;;6.68;89.21;100078.53;5093136;28;20044;-67
2023/02/20 12:13:35;;;;;;;1.25;1.15;;;;;;;6.79;89.01;100078.78;5093906;28;20079;-67